Time;durP1;ratioP1;P1;durP2;ratioP2;P2;SDS_P1;SDS_P2;PMS_P1;PMS_P2;Temp;Humidity;BMP_temperature;BMP_pressure;BME280_temperature;BME280_humidity;BME280_pressure;Samples;Min_cycle;Max_cycle;Signal;HPM_P1;HPM_P2
2023/07/12 00:00:52;;;;;;;1.85;1.58;;;20.10;30.80;;;;;;5073575;28;20169;-79
2023/07/12 00:03:18;;;;;;;3.33;1.33;;;20.00;29.30;;;;;;5072988;28;20172;-78
2023/07/12 00:05:46;;;;;;;1.83;1.70;;;20.00;33.50;;;;;;5073354;28;20618;-79
2023/07/12 00:08:27;;;;;;;3.00;1.50;;;20.00;36.00;;;;;;5055730;28;20173;-80
2023/07/12 00:10:54;;;;;;;1.60;1.50;;;20.00;33.40;;;;;;5073762;28;20172;-80
2023/07/12 00:13:20;;;;;;;1.67;1.58;;;20.00;35.60;;;;;;5073688;28;20208;-79
2023/07/12 00:15:48;;;;;;;1.77;1.67;;;19.90;31.40;;;;;;5073624;28;20608;-80
2023/07/12 00:18:25;;;;;;;2.20;1.60;;;19.90;31.70;;;;;;5073085;28;20226;-80
2023/07/12 00:20:53;;;;;;;1.70;1.48;;;20.00;36.80;;;;;;5073209;28;20662;-79
2023/07/12 00:23:19;;;;;;;3.65;1.80;;;20.00;30.70;;;;;;5055340;28;20188;-79
2023/07/12 00:25:47;;;;;;;3.38;1.60;;;19.90;34.30;;;;;;5073161;28;20208;-80
2023/07/12 00:28:28;;;;;;;2.50;1.80;;;19.90;36.50;;;;;;5073379;28;20173;-79
2023/07/12 00:30:56;;;;;;;4.55;1.80;;;19.90;36.40;;;;;;5054668;28;20519;-80
2023/07/12 00:33:23;;;;;;;3.75;1.70;;;19.80;39.70;;;;;;5054909;28;20230;-80
2023/07/12 00:35:49;;;;;;;2.87;1.90;;;19.80;55.00;;;;;;5073114;28;20226;-80
2023/07/12 00:38:18;;;;;;;1.80;1.70;;;19.60;73.90;;;;;;5072916;28;20165;-79
2023/07/12 00:40:56;;;;;;;3.90;1.90;;;19.40;92.20;;;;;;5072719;28;20187;-80
2023/07/12 00:43:44;;;;;;;1.83;1.73;;;19.00;99.90;;;;;;5073331;28;20585;-80
2023/07/12 00:46:18;;;;;;;2.37;1.87;;;18.70;99.90;;;;;;5073293;28;20176;-80
2023/07/12 00:48:47;;;;;;;3.47;1.90;;;18.40;99.90;;;;;;5073227;28;20225;-81
2023/07/12 00:51:31;;;;;;;1.80;1.70;;;18.20;99.90;;;;;;5073850;28;20196;-81
2023/07/12 00:53:57;;;;;;;2.43;1.80;;;17.90;99.90;;;;;;5073826;28;20704;-79
2023/07/12 00:56:25;;;;;;;2.87;1.97;;;17.70;99.90;;;;;;5073469;28;20185;-79
2023/07/12 00:59:01;;;;;;;1.87;1.60;;;17.70;99.90;;;;;;5055379;28;20223;-78
2023/07/12 01:01:27;;;;;;;2.10;1.90;;;17.50;99.90;;;;;;5073013;28;20156;-78
2023/07/12 01:03:54;;;;;;;1.87;1.70;;;17.40;99.90;;;;;;5072911;28;20279;-79
2023/07/12 01:06:21;;;;;;;2.73;2.00;;;17.30;99.90;;;;;;5072541;28;20271;-79
2023/07/12 01:08:47;;;;;;;2.20;1.80;;;17.40;99.90;;;;;;5072910;28;20226;-78
2023/07/12 01:11:16;;;;;;;3.00;2.13;;;17.30;99.90;;;;;;5075360;28;20172;-78
2023/07/12 01:13:44;;;;;;;1.97;1.57;;;17.30;99.90;;;;;;5076537;28;20193;-78
2023/07/12 01:16:13;;;;;;;3.67;1.57;;;17.20;99.90;;;;;;5076225;28;20222;-77
2023/07/12 01:18:38;;;;;;;1.77;1.50;;;17.00;99.90;;;;;;5076117;28;20194;-77
2023/07/12 01:21:24;;;;;;;2.60;1.93;;;16.90;99.90;;;;;;5075965;28;20172;-78
2023/07/12 01:23:50;;;;;;;2.30;1.80;;;16.90;99.90;;;;;;5076004;28;20169;-78
2023/07/12 01:26:22;;;;;;;2.80;1.60;;;16.90;99.90;;;;;;5076183;28;20173;-78
2023/07/12 01:28:51;;;;;;;4.73;2.17;;;16.80;99.90;;;;;;5075693;28;20616;-77
2023/07/12 01:31:17;;;;;;;2.03;1.70;;;16.80;99.90;;;;;;5075703;28;20176;-76
2023/07/12 01:33:43;;;;;;;2.67;1.63;;;16.70;99.90;;;;;;5075887;28;20173;-76
2023/07/12 01:36:09;;;;;;;4.30;2.20;;;16.70;99.90;;;;;;5076061;28;20256;-77
2023/07/12 01:38:35;;;;;;;4.13;2.30;;;16.80;99.90;;;;;;5075868;28;20591;-76
2023/07/12 01:41:01;;;;;;;4.17;1.97;;;16.80;99.90;;;;;;5057874;28;20177;-78
2023/07/12 01:43:27;;;;;;;3.33;1.97;;;16.80;99.90;;;;;;5075614;28;20165;-77
2023/07/12 01:45:52;;;;;;;5.53;2.50;;;16.80;99.90;;;;;;5075698;28;20219;-77
2023/07/12 01:48:18;;;;;;;3.77;2.50;;;16.80;99.90;;;;;;5075989;28;20531;-77
2023/07/12 01:50:44;;;;;;;2.87;2.07;;;16.80;99.90;;;;;;5075494;28;20180;-76
2023/07/12 01:53:09;;;;;;;5.50;2.30;;;16.80;99.90;;;;;;5075466;28;20165;-77
2023/07/12 01:55:35;;;;;;;2.17;1.80;;;16.70;99.90;;;;;;5075558;28;20165;-75
2023/07/12 01:58:01;;;;;;;3.17;2.10;;;16.70;99.90;;;;;;5074948;28;20173;-76
2023/07/12 02:00:27;;;;;;;3.43;2.50;;;16.70;99.90;;;;;;5075430;28;20506;-75
2023/07/12 02:02:53;;;;;;;3.60;2.50;;;16.70;99.90;;;;;;5075345;28;20219;-77
2023/07/12 02:05:18;;;;;;;3.47;2.60;;;16.70;99.90;;;;;;5075324;28;20208;-77
2023/07/12 02:07:44;;;;;;;3.70;2.30;;;16.70;99.90;;;;;;5075320;28;20252;-76
2023/07/12 02:10:29;;;;;;;2.67;2.30;;;16.70;99.90;;;;;;5075161;28;20177;-76
2023/07/12 02:12:55;;;;;;;2.87;2.30;;;16.70;99.90;;;;;;5074697;28;20700;-76
2023/07/12 02:15:57;;;;;;;4.73;2.50;;;16.70;99.90;;;;;;5075060;28;20191;-76
2023/07/12 02:18:23;;;;;;;2.67;2.03;;;16.60;99.90;;;;;;5074805;28;20290;-76
2023/07/12 02:23:33;;;;;;;4.50;2.07;;;16.60;99.90;;;;;;5074971;28;20187;-76
2023/07/12 02:25:59;;;;;;;2.97;2.13;;;16.60;99.90;;;;;;5074661;28;20291;-75
2023/07/12 02:28:25;;;;;;;4.30;3.17;;;16.60;99.90;;;;;;5074481;28;20294;-75
2023/07/12 02:30:51;;;;;;;4.90;2.83;;;16.60;99.90;;;;;;5074498;28;20199;-75
2023/07/12 02:33:16;;;;;;;5.87;3.27;;;16.50;99.90;;;;;;5074677;28;20210;-76
2023/07/12 02:35:42;;;;;;;3.30;2.67;;;16.50;99.90;;;;;;5074571;28;20226;-76
2023/07/12 02:38:07;;;;;;;4.07;3.10;;;16.60;99.90;;;;;;5074691;28;20574;-75
2023/07/12 02:40:33;;;;;;;4.07;2.77;;;16.60;99.90;;;;;;5074075;28;20641;-75
2023/07/12 02:42:59;;;;;;;4.47;4.07;;;16.60;99.90;;;;;;5074049;28;20563;-75
2023/07/12 02:45:25;;;;;;;6.27;4.00;;;16.60;99.90;;;;;;5074301;28;20287;-76
2023/07/12 02:47:51;;;;;;;4.60;3.97;;;16.60;99.90;;;;;;5074375;28;20271;-76
2023/07/12 02:50:17;;;;;;;5.37;3.80;;;16.50;99.90;;;;;;5074115;28;20172;-76
2023/07/12 02:52:43;;;;;;;5.97;4.10;;;16.50;99.90;;;;;;5074245;28;20720;-76
2023/07/12 02:55:09;;;;;;;7.80;3.80;;;16.50;99.90;;;;;;5074074;28;20378;-75
2023/07/12 02:57:35;;;;;;;4.60;3.47;;;16.50;99.90;;;;;;5073652;28;20276;-75
2023/07/12 03:00:01;;;;;;;5.77;4.90;;;16.50;99.90;;;;;;5074002;28;20183;-76
2023/07/12 03:02:26;;;;;;;5.70;4.10;;;16.50;99.90;;;;;;5073863;28;20259;-76
2023/07/12 03:04:52;;;;;;;8.27;4.10;;;16.50;99.90;;;;;;5073850;28;20219;-75
2023/07/12 03:07:18;;;;;;;6.07;3.97;;;16.50;99.90;;;;;;5073778;28;20655;-76
2023/07/12 03:09:43;;;;;;;7.60;3.87;;;16.50;99.90;;;;;;5073951;28;20176;-76
2023/07/12 03:12:09;;;;;;;8.60;4.00;;;16.60;99.90;;;;;;5073273;28;20204;-76
2023/07/12 03:14:36;;;;;;;6.03;4.00;;;16.60;99.90;;;;;;5073515;28;20184;-76
2023/07/12 03:17:02;;;;;;;6.60;3.67;;;16.50;99.90;;;;;;5073473;28;20640;-76
2023/07/12 03:19:28;;;;;;;5.33;4.03;;;16.50;99.90;;;;;;5073156;28;20624;-77
2023/07/12 03:21:54;;;;;;;7.87;4.17;;;16.60;99.90;;;;;;5073608;28;20247;-78
2023/07/12 03:24:19;;;;;;;8.00;4.10;;;16.60;99.90;;;;;;5073242;28;20563;-75
2023/07/12 03:26:45;;;;;;;4.40;4.00;;;16.60;99.90;;;;;;5055574;28;20259;-77
2023/07/12 03:29:11;;;;;;;8.00;4.37;;;16.50;99.90;;;;;;5073812;28;20278;-78
2023/07/12 03:31:36;;;;;;;7.57;4.20;;;16.50;99.90;;;;;;5073213;28;20176;-77
2023/07/12 03:34:02;;;;;;;5.90;3.70;;;16.40;99.90;;;;;;5072301;28;20594;-76
2023/07/12 03:36:29;;;;;;;8.47;4.30;;;16.50;99.90;;;;;;5073580;28;20169;-78
2023/07/12 03:38:56;;;;;;;8.20;4.50;;;16.50;99.90;;;;;;5073069;28;20236;-78
2023/07/12 03:41:22;;;;;;;6.90;3.83;;;16.50;99.90;;;;;;5073307;28;20172;-77
2023/07/12 03:43:48;;;;;;;4.97;4.17;;;16.50;99.90;;;;;;5073401;28;20219;-77
2023/07/12 03:46:15;;;;;;;5.60;3.57;;;16.50;99.90;;;;;;5072653;28;20212;-77
2023/07/12 03:48:41;;;;;;;9.53;4.73;;;16.50;99.90;;;;;;5073211;28;20168;-78
2023/07/12 03:51:08;;;;;;;7.60;4.67;;;16.40;99.90;;;;;;5072923;28;20238;-76
2023/07/12 03:53:36;;;;;;;4.57;3.97;;;16.50;99.90;;;;;;5072729;28;20251;-77
2023/07/12 03:56:02;;;;;;;6.73;4.60;;;16.40;99.90;;;;;;5073226;28;20172;-77
2023/07/12 03:58:31;;;;;;;10.17;4.67;;;16.40;99.90;;;;;;5072943;28;20222;-77
2023/07/12 04:00:56;;;;;;;5.93;4.23;;;16.50;99.90;;;;;;5072837;28;20181;-77
2023/07/12 04:03:22;;;;;;;8.03;4.13;;;16.50;99.90;;;;;;5072951;28;20632;-77
2023/07/12 04:05:52;;;;;;;6.67;4.00;;;16.60;99.90;;;;;;5073181;28;20728;-77
2023/07/12 04:08:18;;;;;;;8.83;4.20;;;16.70;99.90;;;;;;5072727;28;20176;-77
2023/07/12 04:10:43;;;;;;;6.93;4.20;;;16.70;99.90;;;;;;5054939;28;20180;-77
2023/07/12 04:13:09;;;;;;;8.13;4.13;;;16.70;99.90;;;;;;5072782;28;20199;-77
2023/07/12 04:15:35;;;;;;;7.30;3.70;;;16.80;99.90;;;;;;5072572;28;20172;-76
2023/07/12 04:18:03;;;;;;;9.37;3.87;;;16.80;99.90;;;;;;5072858;28;20245;-77
2023/07/12 04:20:29;;;;;;;9.07;4.07;;;16.80;99.90;;;;;;5072882;28;20185;-77
2023/07/12 04:22:55;;;;;;;4.53;3.77;;;16.80;99.90;;;;;;5072354;28;20199;-78
2023/07/12 04:25:21;;;;;;;4.80;3.23;;;16.80;99.90;;;;;;5073038;28;20715;-78
2023/07/12 04:27:47;;;;;;;9.13;4.00;;;16.80;99.90;;;;;;5055087;28;20204;-78
2023/07/12 04:30:15;;;;;;;5.43;3.70;;;16.90;99.90;;;;;;5073122;28;20172;-78
2023/07/12 04:32:41;;;;;;;9.27;3.90;;;16.90;99.90;;;;;;5072697;28;20620;-78
2023/07/12 04:35:08;;;;;;;5.67;3.77;;;17.00;99.90;;;;;;5073243;28;20181;-78
2023/07/12 04:37:34;;;;;;;8.90;3.93;;;16.90;99.90;;;;;;5072473;28;20173;-78
2023/07/12 04:40:00;;;;;;;6.37;3.90;;;17.00;99.90;;;;;;5073205;28;20311;-77
2023/07/12 04:42:26;;;;;;;4.93;3.73;;;17.00;99.90;;;;;;5072635;28;20211;-76
2023/07/12 04:44:52;;;;;;;7.50;4.00;;;17.00;99.90;;;;;;5074084;28;20205;-79
2023/07/12 04:47:18;;;;;;;10.77;4.10;;;17.10;99.90;;;;;;5076225;28;20177;-77
2023/07/12 04:49:44;;;;;;;7.93;4.13;;;17.10;99.90;;;;;;5076172;28;20177;-78
2023/07/12 04:52:13;;;;;;;9.03;3.97;;;17.20;99.90;;;;;;5075920;28;20196;-78
2023/07/12 04:54:40;;;;;;;8.47;4.20;;;17.30;99.90;;;;;;5076445;28;20172;-78
2023/07/12 04:57:07;;;;;;;5.30;3.60;;;17.50;99.90;;;;;;5075703;28;20183;-78
2023/07/12 04:59:33;;;;;;;6.63;3.70;;;17.70;99.90;;;;;;5075470;28;20164;-79
2023/07/12 05:01:58;;;;;;;7.00;4.30;;;17.70;99.90;;;;;;5076199;28;20164;-78
2023/07/12 05:04:24;;;;;;;10.00;3.83;;;17.50;99.90;;;;;;5057821;28;20203;-79
2023/07/12 05:06:51;;;;;;;7.20;4.17;;;17.60;99.90;;;;;;5075996;28;20522;-78
2023/07/12 05:09:17;;;;;;;5.23;3.67;;;17.70;99.90;;;;;;5075107;28;20573;-78
2023/07/12 05:11:43;;;;;;;6.40;3.43;;;17.60;99.90;;;;;;5075420;28;20250;-78
2023/07/12 05:14:09;;;;;;;7.30;3.67;;;17.50;99.90;;;;;;5076093;28;20635;-77
2023/07/12 05:16:34;;;;;;;8.83;3.90;;;17.60;99.90;;;;;;5075912;28;20511;-78
2023/07/12 05:19:00;;;;;;;8.63;4.07;;;17.60;99.90;;;;;;5075558;28;20172;-78
2023/07/12 05:21:26;;;;;;;12.80;4.27;;;17.50;99.90;;;;;;5075345;28;20176;-76
2023/07/12 05:23:51;;;;;;;8.30;4.20;;;17.60;99.90;;;;;;5075770;28;20215;-78
2023/07/12 05:26:17;;;;;;;6.67;3.77;;;17.60;99.90;;;;;;5075421;28;20698;-79
2023/07/12 05:28:42;;;;;;;7.53;4.40;;;17.60;99.90;;;;;;5076039;28;20169;-78
2023/07/12 05:31:10;;;;;;;7.17;4.00;;;17.60;99.90;;;;;;5075686;28;20620;-79
2023/07/12 05:33:36;;;;;;;8.27;3.90;;;17.60;99.90;;;;;;5075580;28;20177;-78
2023/07/12 05:36:03;;;;;;;10.23;4.17;;;18.10;99.90;;;;;;5075156;28;20184;-78
2023/07/12 05:38:29;;;;;;;7.23;3.97;;;18.50;99.90;;;;;;5075213;28;20168;-75
2023/07/12 05:41:01;;;;;;;9.27;4.17;;;18.80;99.90;;;;;;5074908;28;20208;-74
2023/07/12 05:43:28;;;;;;;6.68;3.10;;;19.60;99.90;;;;;;5074699;28;20250;-75
2023/07/12 05:45:56;;;;;;;6.35;3.28;;;20.20;96.20;;;;;;5057191;28;20242;-75
2023/07/12 05:48:22;;;;;;;6.75;3.70;;;20.00;88.50;;;;;;5075031;28;20540;-77
2023/07/12 05:50:56;;;;;;;7.15;3.80;;;19.70;97.40;;;;;;5074391;28;20176;-78
2023/07/12 05:53:21;;;;;;;7.03;3.47;;;19.70;99.90;;;;;;5074733;28;20180;-77
2023/07/12 05:55:47;;;;;;;7.93;3.50;;;19.50;99.90;;;;;;5073905;28;20208;-77
2023/07/12 05:58:13;;;;;;;9.93;3.63;;;18.90;99.90;;;;;;5074625;28;20529;-78
2023/07/12 06:00:39;;;;;;;8.63;3.70;;;18.70;99.90;;;;;;5074586;28;20601;-78
2023/07/12 06:03:05;;;;;;;4.33;3.40;;;18.70;99.90;;;;;;5074421;28;20173;-77
2023/07/12 06:05:32;;;;;;;6.67;3.30;;;18.60;99.90;;;;;;5074079;28;20287;-78
2023/07/12 06:07:58;;;;;;;8.33;3.33;;;18.50;99.90;;;;;;5074819;28;20183;-79
2023/07/12 06:10:23;;;;;;;9.73;3.60;;;18.60;99.90;;;;;;5073869;28;20253;-80
2023/07/12 06:12:49;;;;;;;7.83;3.50;;;18.70;99.90;;;;;;5073613;28;20188;-79
2023/07/12 06:15:15;;;;;;;7.50;3.40;;;18.60;99.90;;;;;;5074648;28;20173;-77
2023/07/12 06:17:40;;;;;;;11.30;3.50;;;18.60;99.90;;;;;;5074821;28;20184;-78
2023/07/12 06:20:07;;;;;;;11.40;3.40;;;18.70;99.90;;;;;;5078301;28;20179;-81
2023/07/12 06:22:33;;;;;;;6.00;3.57;;;18.70;99.90;;;;;;5079490;28;20169;-82
2023/07/12 06:24:59;;;;;;;7.57;3.40;;;18.70;99.90;;;;;;5076722;28;20222;-82
2023/07/12 06:27:24;;;;;;;7.60;3.60;;;18.80;99.90;;;;;;5078594;28;20654;-80
2023/07/12 06:29:50;;;;;;;6.53;3.50;;;19.20;99.90;;;;;;5056897;28;20173;-81
2023/07/12 06:32:16;;;;;;;8.23;3.23;;;19.20;99.90;;;;;;5075663;28;20161;-82
2023/07/12 06:34:41;;;;;;;7.03;3.20;;;19.10;99.90;;;;;;5075031;28;20529;-82
2023/07/12 06:37:08;;;;;;;8.05;3.63;;;19.40;99.90;;;;;;5074042;28;20164;-80
2023/07/12 06:39:35;;;;;;;6.18;3.13;;;20.40;76.80;;;;;;5073888;28;20767;-82
2023/07/12 06:42:00;;;;;;;6.40;3.10;;;21.10;48.80;;;;;;5072919;28;20179;-80
2023/07/12 06:44:26;;;;;;;7.68;2.65;;;21.50;27.10;;;;;;5074832;28;20242;-81
2023/07/12 06:46:52;;;;;;;5.68;3.08;;;22.10;11.50;;;;;;5073584;28;20176;-80
2023/07/12 06:49:17;;;;;;;5.53;2.80;;;22.30;1.00;;;;;;5055196;28;20172;-80
2023/07/12 06:51:46;;;;;;;9.07;3.08;;;22.40;1.00;;;;;;5073430;28;20191;-81
2023/07/12 06:54:15;;;;;;;7.63;2.72;;;22.10;1.00;;;;;;5074201;28;20161;-79
2023/07/12 06:56:42;;;;;;;8.52;3.15;;;21.70;14.70;;;;;;5072979;28;20574;-80
2023/07/12 06:59:09;;;;;;;6.90;2.80;;;21.40;24.20;;;;;;5073149;28;20207;-82
2023/07/12 07:01:34;;;;;;;4.75;2.90;;;20.60;35.80;;;;;;5073550;28;20173;-81
2023/07/12 07:04:01;;;;;;;7.13;2.90;;;20.30;48.20;;;;;;5073548;28;20168;-80
2023/07/12 07:06:26;;;;;;;5.63;2.85;;;20.20;59.50;;;;;;5073454;28;20173;-81
2023/07/12 07:08:52;;;;;;;6.85;2.90;;;20.10;60.40;;;;;;5072481;28;20249;-82
2023/07/12 07:11:18;;;;;;;7.15;3.05;;;20.00;57.40;;;;;;5072972;28;20195;-80
2023/07/12 07:13:44;;;;;;;6.40;2.97;;;19.70;68.40;;;;;;5073352;28;20193;-82
2023/07/12 07:16:10;;;;;;;7.40;3.13;;;19.80;71.70;;;;;;5073383;28;20248;-83
2023/07/12 07:18:36;;;;;;;7.20;2.72;;;19.90;76.60;;;;;;5073144;28;20172;-79
2023/07/12 07:21:03;;;;;;;7.82;3.35;;;19.90;70.80;;;;;;5072811;28;20173;-82
2023/07/12 07:23:29;;;;;;;6.13;3.53;;;19.60;75.30;;;;;;5073220;28;20237;-80
2023/07/12 07:26:00;;;;;;;12.27;3.63;;;19.70;80.40;;;;;;5073381;28;20736;-80
2023/07/12 07:28:26;;;;;;;9.07;3.40;;;19.60;74.40;;;;;;5073135;28;20168;-82
2023/07/12 07:30:55;;;;;;;7.63;3.28;;;19.50;76.00;;;;;;5072988;28;20225;-79
2023/07/12 07:33:21;;;;;;;9.13;3.22;;;19.40;81.60;;;;;;5072988;28;20259;-77
2023/07/12 07:35:47;;;;;;;6.90;3.33;;;19.60;82.70;;;;;;5067865;28;20248;-78
2023/07/12 07:38:13;;;;;;;8.10;3.30;;;19.80;82.30;;;;;;5053306;28;20177;-81
2023/07/12 07:40:42;;;;;;;5.60;3.05;;;20.60;49.00;;;;;;5060551;28;20188;-79
2023/07/12 07:43:09;;;;;;;4.50;2.90;;;21.00;30.00;;;;;;5047909;28;20654;-78
2023/07/12 07:45:34;;;;;;;8.23;3.22;;;21.80;16.10;;;;;;5041407;28;20577;-81
2023/07/12 07:48:00;;;;;;;5.93;3.15;;;21.80;3.60;;;;;;5062093;28;20263;-82
2023/07/12 07:50:26;;;;;;;5.55;3.17;;;21.90;8.90;;;;;;5065148;28;20677;-81
2023/07/12 07:52:53;;;;;;;6.50;3.45;;;21.90;1.00;;;;;;5064869;28;20181;-79
2023/07/12 07:55:20;;;;;;;9.98;3.55;;;21.60;2.90;;;;;;5047808;28;20185;-80
2023/07/12 07:57:45;;;;;;;10.60;3.05;;;21.60;3.00;;;;;;5071149;28;20871;-82
2023/07/12 08:00:13;;;;;;;10.05;3.28;;;22.30;1.00;;;;;;5067433;28;20679;-82
2023/07/12 08:02:42;;;;;;;7.03;2.92;;;22.40;1.00;;;;;;5073766;28;20259;-83
2023/07/12 08:05:09;;;;;;;7.63;2.90;;;22.10;1.00;;;;;;5071563;28;20742;-80
2023/07/12 08:07:40;;;;;;;3.63;2.90;;;21.70;1.00;;;;;;5068478;28;20207;-76
2023/07/12 08:10:07;;;;;;;4.15;2.72;;;22.10;1.00;;;;;;5057800;28;20188;-78
2023/07/12 08:12:33;;;;;;;5.68;2.80;;;22.80;1.00;;;;;;5061355;28;20192;-76
2023/07/12 08:14:59;;;;;;;8.57;3.30;;;23.40;1.00;;;;;;5051223;28;20735;-80
2023/07/12 08:17:24;;;;;;;6.88;2.80;;;23.60;1.00;;;;;;5067795;28;20180;-80
2023/07/12 08:19:51;;;;;;;6.65;2.47;;;23.40;1.00;;;;;;5073620;28;20172;-79
2023/07/12 08:22:19;;;;;;;6.25;2.47;;;23.00;1.00;;;;;;5065945;28;20282;-78
2023/07/12 08:24:46;;;;;;;6.20;2.75;;;23.60;1.00;;;;;;5074114;28;20231;-80
2023/07/12 08:27:12;;;;;;;7.55;2.67;;;23.80;1.00;;;;;;5049574;28;20181;-80
2023/07/12 08:29:39;;;;;;;3.97;2.70;;;24.00;1.00;;;;;;5068157;28;20181;-77
2023/07/12 08:32:06;;;;;;;7.88;2.45;;;24.00;1.00;;;;;;5061499;28;20671;-76
2023/07/12 08:34:31;;;;;;;4.68;2.45;;;24.30;1.00;;;;;;5071508;28;20188;-77
2023/07/12 08:36:57;;;;;;;9.13;2.50;;;26.00;1.00;;;;;;5072127;28;20180;-78
2023/07/12 08:39:23;;;;;;;7.43;2.58;;;26.70;1.00;;;;;;5071652;28;20687;-77
2023/07/12 08:41:51;;;;;;;8.38;2.80;;;28.20;73.70;;;;;;5059875;28;20257;-79
2023/07/12 08:44:17;;;;;;;4.60;2.38;;;29.80;1.00;;;;;;5068148;28;20184;-78
2023/07/12 08:46:51;;;;;;;5.97;2.50;;;30.20;1.00;;;;;;5069556;28;20185;-79
2023/07/12 08:49:18;;;;;;;3.92;2.13;;;29.30;1.00;;;;;;5066332;28;20168;-80
2023/07/12 08:51:44;;;;;;;5.57;2.40;;;29.80;99.90;;;;;;5074655;28;20188;-80
2023/07/12 08:54:27;;;;;;;5.88;2.28;;;30.40;1.00;;;;;;5073813;28;20177;-78
2023/07/12 08:57:19;;;;;;;4.78;2.38;;;31.10;1.00;;;;;;5067770;28;20184;-81
2023/07/12 09:00:03;;;;;;;3.35;1.92;;;32.00;1.00;;;;;;5060731;28;20640;-81
2023/07/12 09:02:28;;;;;;;5.53;2.10;;;31.80;1.00;;;;;;5064412;28;20263;-80
2023/07/12 09:04:59;;;;;;;5.32;2.08;;;32.40;1.00;;;;;;5064645;28;20279;-82
2023/07/12 09:07:31;;;;;;;5.78;2.42;;;32.00;1.00;;;;;;5064747;28;20177;-80
2023/07/12 09:09:59;;;;;;;5.22;1.95;;;31.90;1.00;;;;;;5078144;28;20663;-83
2023/07/12 09:12:28;;;;;;;6.22;2.10;;;31.50;1.00;;;;;;5073985;28;20282;-81
2023/07/12 09:15:00;;;;;;;6.55;2.22;;;32.10;1.00;;;;;;5072153;28;20192;-79
2023/07/12 09:17:30;;;;;;;6.03;2.25;;;32.20;1.00;;;;;;5071526;28;20183;-80
2023/07/12 09:19:57;;;;;;;3.10;1.98;;;31.00;1.00;;;;;;5052475;28;20173;-81
2023/07/12 09:22:23;;;;;;;4.60;2.10;;;30.30;1.00;;;;;;5061593;28;20196;-81
2023/07/12 09:24:54;;;;;;;7.13;3.00;;;29.80;99.90;;;;;;5072590;28;20189;-84
2023/07/12 09:27:25;;;;;;;6.95;2.08;;;30.00;1.00;;;;;;5062716;28;20177;-78
2023/07/12 09:30:02;;;;;;;2.47;1.92;;;29.20;99.90;;;;;;5067509;28;20184;-77
2023/07/12 09:32:36;;;;;;;7.07;2.25;;;28.00;99.90;;;;;;5055786;28;20234;-78
2023/07/12 09:35:28;;;;;;;5.00;2.40;;;27.40;99.90;;;;;;5041051;28;20195;-78
2023/07/12 09:38:06;;;;;;;4.20;2.00;;;26.40;99.90;;;;;;5068185;28;20215;-76
2023/07/12 09:40:38;;;;;;;6.90;2.28;;;25.80;9.20;;;;;;5071861;28;20351;-77
2023/07/12 09:43:20;;;;;;;2.72;1.95;;;26.30;31.20;;;;;;5061125;28;20181;-77
2023/07/12 09:46:03;;;;;;;3.92;2.40;;;27.30;1.00;;;;;;5062840;28;20341;-79
2023/07/12 09:48:33;;;;;;;4.10;2.13;;;27.70;1.00;;;;;;5059290;28;20165;-78
2023/07/12 09:51:15;;;;;;;5.72;2.20;;;28.10;99.90;;;;;;5064962;28;20191;-79
2023/07/12 09:53:47;;;;;;;8.00;2.28;;;27.10;1.00;;;;;;5051822;28;20173;-81
2023/07/12 09:56:38;;;;;;;4.70;2.10;;;26.20;99.90;;;;;;5074003;28;20191;-81
2023/07/12 09:59:16;;;;;;;5.25;2.10;;;26.00;1.00;;;;;;5070727;28;20261;-79
2023/07/12 10:01:48;;;;;;;5.70;2.22;;;25.40;99.90;;;;;;5071832;28;20188;-80
2023/07/12 10:04:36;;;;;;;5.50;2.10;;;25.00;99.90;;;;;;5061210;28;20185;-77
2023/07/12 10:07:14;;;;;;;6.32;2.17;;;24.50;1.00;;;;;;5048323;28;20223;-79
2023/07/12 10:09:44;;;;;;;4.50;2.28;;;24.10;1.00;;;;;;5069958;28;20263;-76
2023/07/12 10:12:26;;;;;;;5.78;2.00;;;24.00;1.00;;;;;;5071709;28;20656;-78
2023/07/12 10:14:54;;;;;;;7.15;2.10;;;25.00;1.00;;;;;;5071703;28;20215;-79
2023/07/12 10:17:40;;;;;;;7.38;2.45;;;25.50;1.00;;;;;;5065648;28;20191;-80
2023/07/12 10:20:17;;;;;;;4.25;1.92;;;26.10;1.00;;;;;;5062302;28;20181;-80
2023/07/12 10:22:45;;;;;;;4.32;2.20;;;26.30;99.90;;;;;;5073339;28;20194;-79
2023/07/12 10:25:33;;;;;;;3.58;2.17;;;26.60;1.00;;;;;;5072244;28;20262;-79
2023/07/12 10:28:19;;;;;;;5.05;2.47;;;27.30;1.00;;;;;;5063741;28;20184;-81
2023/07/12 10:30:48;;;;;;;6.35;2.03;;;28.20;1.00;;;;;;5070584;28;20184;-80
2023/07/12 10:33:37;;;;;;;6.13;1.88;;;27.80;1.00;;;;;;5075952;28;20187;-80
2023/07/12 10:36:11;;;;;;;3.20;1.70;;;27.60;1.00;;;;;;5078445;28;20184;-78
2023/07/12 10:38:37;;;;;;;3.10;1.65;;;28.30;99.90;;;;;;5059137;28;20211;-83
2023/07/12 10:41:34;;;;;;;7.55;2.00;;;27.80;99.90;;;;;;5083401;28;20157;-81
2023/07/12 10:44:07;;;;;;;3.92;1.83;;;27.00;1.00;;;;;;5038188;28;20177;-77
2023/07/12 10:46:37;;;;;;;4.57;2.13;;;26.50;12.70;;;;;;5077892;28;20223;-80
2023/07/12 10:49:11;;;;;;;5.00;1.80;;;26.20;1.00;;;;;;5071622;28;20184;-78
2023/07/12 10:51:40;;;;;;;6.80;1.90;;;25.40;99.90;;;;;;5074067;28;20257;-76
2023/07/12 10:54:28;;;;;;;8.45;2.42;;;24.80;1.00;;;;;;5068504;28;20642;-76
2023/07/12 10:56:55;;;;;;;4.10;2.05;;;24.40;1.00;;;;;;5067261;28;20644;-75
2023/07/12 10:59:32;;;;;;;7.05;2.50;;;23.90;1.00;;;;;;5059374;28;20185;-75
2023/07/12 11:02:04;;;;;;;8.30;2.15;;;24.10;1.00;;;;;;5066650;28;20647;-77
2023/07/12 11:04:30;;;;;;;5.85;2.10;;;24.90;1.00;;;;;;5053491;28;20239;-77
2023/07/12 11:07:03;;;;;;;3.95;1.92;;;25.20;1.00;;;;;;5068479;28;20215;-78
2023/07/12 11:09:47;;;;;;;4.80;2.10;;;25.20;1.00;;;;;;5068843;28;20179;-76
2023/07/12 11:12:34;;;;;;;5.80;2.35;;;25.70;99.90;;;;;;5051325;28;20229;-79
2023/07/12 11:15:11;;;;;;;4.13;1.92;;;26.00;1.00;;;;;;5057337;28;20176;-77
2023/07/12 11:18:07;;;;;;;4.18;1.70;;;26.10;1.00;;;;;;5068930;28;20260;-77
2023/07/12 11:20:54;;;;;;;3.67;1.80;;;26.30;14.60;;;;;;5069801;28;20317;-78
2023/07/12 11:23:26;;;;;;;3.60;1.55;;;26.00;1.00;;;;;;5060830;28;20188;-77
2023/07/12 11:26:02;;;;;;;2.25;1.48;;;26.50;99.90;;;;;;5063267;28;20216;-78
2023/07/12 11:28:48;;;;;;;2.97;1.50;;;26.50;1.00;;;;;;5044723;28;20208;-76
2023/07/12 11:31:26;;;;;;;4.38;2.53;;;26.90;99.90;;;;;;5060866;28;20305;-76
2023/07/12 11:34:14;;;;;;;2.33;1.50;;;27.30;99.90;;;;;;5056778;28;20181;-75
2023/07/12 11:36:40;;;;;;;2.60;1.52;;;26.70;99.90;;;;;;5058769;28;20177;-77
2023/07/12 11:39:15;;;;;;;2.85;1.50;;;26.40;1.00;;;;;;5063116;28;20257;-76
2023/07/12 11:41:52;;;;;;;5.47;1.70;;;26.20;1.00;;;;;;5062304;28;20176;-77
2023/07/12 11:44:17;;;;;;;5.55;1.65;;;25.90;99.90;;;;;;5052912;28;20536;-76
2023/07/12 11:46:43;;;;;;;4.50;1.55;;;26.10;64.40;;;;;;5039313;28;20192;-78
2023/07/12 11:49:34;;;;;;;3.25;1.50;;;26.20;99.90;;;;;;5054094;28;20291;-76
2023/07/12 11:52:13;;;;;;;3.63;1.50;;;25.80;1.00;;;;;;5052234;28;20686;-77
2023/07/12 11:54:40;;;;;;;3.30;1.30;;;25.20;1.00;;;;;;5064928;28;20176;-75
2023/07/12 11:57:11;;;;;;;3.28;1.80;;;24.90;99.90;;;;;;5055892;28;20172;-76
2023/07/12 11:59:39;;;;;;;3.08;1.58;;;25.10;1.00;;;;;;5064416;28;20180;-76
2023/07/12 12:02:11;;;;;;;4.63;2.00;;;25.50;1.00;;;;;;5060667;28;20636;-77
2023/07/12 12:04:38;;;;;;;3.40;1.73;;;25.80;1.00;;;;;;5054745;28;20205;-74
2023/07/12 12:07:26;;;;;;;3.42;1.35;;;26.10;1.00;;;;;;5066713;28;20173;-73
2023/07/12 12:09:53;;;;;;;3.50;1.40;;;25.70;99.90;;;;;;5055356;28;20176;-72
2023/07/12 12:12:24;;;;;;;5.63;1.48;;;25.80;1.00;;;;;;5054719;28;20647;-73
2023/07/12 12:14:51;;;;;;;2.35;1.58;;;25.90;97.10;;;;;;5061910;28;20192;-75
2023/07/12 12:17:25;;;;;;;4.03;1.50;;;25.60;99.90;;;;;;5056103;28;20188;-74
2023/07/12 12:20:02;;;;;;;4.13;1.38;;;25.30;1.00;;;;;;5061444;28;20176;-75
2023/07/12 12:22:28;;;;;;;3.30;1.50;;;24.90;71.00;;;;;;5060689;28;20225;-76
2023/07/12 12:24:56;;;;;;;3.95;1.38;;;25.30;46.40;;;;;;5069378;28;20200;-75
2023/07/12 12:27:28;;;;;;;1.88;1.20;;;25.70;99.90;;;;;;5038744;28;20518;-75
2023/07/12 12:29:54;;;;;;;2.08;1.40;;;26.10;99.90;;;;;;5064036;28;20201;-76
2023/07/12 12:32:21;;;;;;;2.95;1.40;;;25.90;99.90;;;;;;5063213;28;20208;-75
2023/07/12 12:34:53;;;;;;;2.15;1.20;;;25.70;99.90;;;;;;5060861;28;20182;-76
2023/07/12 12:37:27;;;;;;;1.33;1.00;;;26.00;1.00;;;;;;5058676;28;20260;-74
2023/07/12 12:39:59;;;;;;;2.58;1.30;;;26.10;1.00;;;;;;5056454;28;20702;-74
2023/07/12 12:42:27;;;;;;;2.65;1.33;;;26.00;99.90;;;;;;5063932;28;20180;-75
2023/07/12 12:44:55;;;;;;;2.42;1.27;;;25.80;1.00;;;;;;5052879;28;20205;-76
2023/07/12 12:47:30;;;;;;;3.92;1.40;;;25.70;99.90;;;;;;5063792;28;20185;-76
2023/07/12 12:49:57;;;;;;;4.78;1.10;;;25.70;1.00;;;;;;5060918;28;20184;-75
2023/07/12 12:52:32;;;;;;;3.03;1.30;;;25.70;1.00;;;;;;5062325;28;20203;-75
2023/07/12 12:55:04;;;;;;;4.43;1.70;;;25.40;1.00;;;;;;5067285;28;20177;-77
2023/07/12 12:57:31;;;;;;;3.75;1.30;;;25.70;1.00;;;;;;5061141;28;20339;-76
2023/07/12 12:59:58;;;;;;;2.65;1.40;;;25.60;33.80;;;;;;5070738;28;20584;-76
2023/07/12 13:02:23;;;;;;;2.80;1.38;;;25.90;1.00;;;;;;5054170;28;20210;-73
2023/07/12 13:04:49;;;;;;;3.50;1.08;;;25.70;1.00;;;;;;5067590;28;20248;-74